sensor_id;sensor_type;location;lat;lon;timestamp;P1;durP1;ratioP1;P2;durP2;ratioP2
12986;SDS011;58897;51.960;5.582;2022-10-17T00:01:29;5.20;;;4.27;;
12986;SDS011;58897;51.960;5.582;2022-10-17T00:03:55;6.17;;;4.17;;
12986;SDS011;58897;51.960;5.582;2022-10-17T00:06:22;6.37;;;4.37;;
12986;SDS011;58897;51.960;5.582;2022-10-17T00:08:48;5.80;;;4.63;;
12986;SDS011;58897;51.960;5.582;2022-10-17T00:11:16;6.43;;;4.80;;
12986;SDS011;58897;51.960;5.582;2022-10-17T00:13:45;7.90;;;4.60;;
12986;SDS011;58897;51.960;5.582;2022-10-17T00:16:12;7.53;;;4.10;;
12986;SDS011;58897;51.960;5.582;2022-10-17T00:18:39;5.10;;;4.57;;
12986;SDS011;58897;51.960;5.582;2022-10-17T00:21:05;5.43;;;4.20;;
12986;SDS011;58897;51.960;5.582;2022-10-17T00:23:40;5.60;;;4.57;;
12986;SDS011;58897;51.960;5.582;2022-10-17T00:26:06;8.97;;;4.87;;
12986;SDS011;58897;51.960;5.582;2022-10-17T00:28:33;7.70;;;4.80;;
12986;SDS011;58897;51.960;5.582;2022-10-17T00:31:00;6.47;;;4.60;;
12986;SDS011;58897;51.960;5.582;2022-10-17T00:33:29;8.50;;;4.73;;
12986;SDS011;58897;51.960;5.582;2022-10-17T00:38:35;5.23;;;4.63;;
12986;SDS011;58897;51.960;5.582;2022-10-17T00:41:02;7.80;;;4.60;;
12986;SDS011;58897;51.960;5.582;2022-10-17T00:43:47;9.03;;;4.80;;
12986;SDS011;58897;51.960;5.582;2022-10-17T00:46:22;5.73;;;5.00;;
12986;SDS011;58897;51.960;5.582;2022-10-17T00:48:51;5.80;;;4.60;;
12986;SDS011;58897;51.960;5.582;2022-10-17T00:51:21;5.87;;;4.70;;
12986;SDS011;58897;51.960;5.582;2022-10-17T00:53:52;8.33;;;5.07;;
12986;SDS011;58897;51.960;5.582;2022-10-17T00:56:19;6.43;;;4.67;;
12986;SDS011;58897;51.960;5.582;2022-10-17T00:58:46;7.17;;;4.70;;
12986;SDS011;58897;51.960;5.582;2022-10-17T01:01:13;7.87;;;4.57;;
12986;SDS011;58897;51.960;5.582;2022-10-17T01:03:39;6.40;;;5.00;;
12986;SDS011;58897;51.960;5.582;2022-10-17T01:06:06;6.07;;;5.20;;
12986;SDS011;58897;51.960;5.582;2022-10-17T01:08:32;9.63;;;5.80;;
12986;SDS011;58897;51.960;5.582;2022-10-17T01:11:10;6.00;;;5.00;;
12986;SDS011;58897;51.960;5.582;2022-10-17T01:13:43;6.80;;;5.40;;
12986;SDS011;58897;51.960;5.582;2022-10-17T01:16:17;8.13;;;5.17;;
12986;SDS011;58897;51.960;5.582;2022-10-17T01:19:58;6.20;;;5.23;;
12986;SDS011;58897;51.960;5.582;2022-10-17T01:25:00;6.47;;;4.97;;
12986;SDS011;58897;51.960;5.582;2022-10-17T01:27:36;6.73;;;5.40;;
12986;SDS011;58897;51.960;5.582;2022-10-17T01:33:31;6.57;;;5.27;;
12986;SDS011;58897;51.960;5.582;2022-10-17T01:36:00;6.63;;;5.37;;
12986;SDS011;58897;51.960;5.582;2022-10-17T01:38:52;6.93;;;4.60;;
12986;SDS011;58897;51.960;5.582;2022-10-17T01:44:13;6.90;;;5.50;;
12986;SDS011;58897;51.960;5.582;2022-10-17T01:46:48;6.40;;;5.17;;
12986;SDS011;58897;51.960;5.582;2022-10-17T01:49:18;9.03;;;5.87;;
12986;SDS011;58897;51.960;5.582;2022-10-17T01:51:50;8.20;;;5.60;;
12986;SDS011;58897;51.960;5.582;2022-10-17T01:54:22;7.90;;;5.90;;
12986;SDS011;58897;51.960;5.582;2022-10-17T01:56:55;6.70;;;5.30;;
12986;SDS011;58897;51.960;5.582;2022-10-17T01:59:30;10.70;;;6.13;;
12986;SDS011;58897;51.960;5.582;2022-10-17T02:02:12;7.20;;;6.10;;
12986;SDS011;58897;51.960;5.582;2022-10-17T02:04:41;6.27;;;5.63;;
12986;SDS011;58897;51.960;5.582;2022-10-17T02:07:08;6.63;;;5.30;;
12986;SDS011;58897;51.960;5.582;2022-10-17T02:09:36;7.43;;;5.93;;
12986;SDS011;58897;51.960;5.582;2022-10-17T02:22:51;8.97;;;6.10;;
12986;SDS011;58897;51.960;5.582;2022-10-17T02:25:26;8.17;;;6.40;;
12986;SDS011;58897;51.960;5.582;2022-10-17T02:30:50;8.77;;;6.50;;
12986;SDS011;58897;51.960;5.582;2022-10-17T02:33:26;7.17;;;6.00;;
12986;SDS011;58897;51.960;5.582;2022-10-17T02:36:01;6.67;;;5.77;;
12986;SDS011;58897;51.960;5.582;2022-10-17T02:38:33;10.40;;;6.10;;
12986;SDS011;58897;51.960;5.582;2022-10-17T02:41:00;10.03;;;6.03;;
12986;SDS011;58897;51.960;5.582;2022-10-17T02:43:28;8.47;;;6.13;;
12986;SDS011;58897;51.960;5.582;2022-10-17T02:45:55;8.70;;;5.50;;
12986;SDS011;58897;51.960;5.582;2022-10-17T02:48:36;12.13;;;6.17;;
12986;SDS011;58897;51.960;5.582;2022-10-17T02:54:19;8.23;;;6.07;;
12986;SDS011;58897;51.960;5.582;2022-10-17T02:56:55;8.80;;;6.50;;
12986;SDS011;58897;51.960;5.582;2022-10-17T02:59:27;8.07;;;5.90;;
12986;SDS011;58897;51.960;5.582;2022-10-17T03:02:00;9.27;;;6.00;;
12986;SDS011;58897;51.960;5.582;2022-10-17T03:04:29;7.53;;;5.90;;
12986;SDS011;58897;51.960;5.582;2022-10-17T03:06:55;6.73;;;5.63;;
12986;SDS011;58897;51.960;5.582;2022-10-17T03:09:21;8.20;;;6.00;;
12986;SDS011;58897;51.960;5.582;2022-10-17T03:11:48;7.30;;;6.27;;
12986;SDS011;58897;51.960;5.582;2022-10-17T03:14:14;8.50;;;6.40;;
12986;SDS011;58897;51.960;5.582;2022-10-17T03:16:41;10.33;;;6.60;;
12986;SDS011;58897;51.960;5.582;2022-10-17T03:19:07;6.90;;;5.87;;
12986;SDS011;58897;51.960;5.582;2022-10-17T03:21:33;10.90;;;6.33;;
12986;SDS011;58897;51.960;5.582;2022-10-17T03:24:02;9.23;;;6.40;;
12986;SDS011;58897;51.960;5.582;2022-10-17T03:26:29;7.37;;;5.87;;
12986;SDS011;58897;51.960;5.582;2022-10-17T03:28:56;9.47;;;6.27;;
12986;SDS011;58897;51.960;5.582;2022-10-17T03:31:22;10.50;;;6.30;;
12986;SDS011;58897;51.960;5.582;2022-10-17T03:33:49;8.50;;;6.17;;
12986;SDS011;58897;51.960;5.582;2022-10-17T03:36:16;8.47;;;6.53;;
12986;SDS011;58897;51.960;5.582;2022-10-17T03:38:43;6.93;;;5.73;;
12986;SDS011;58897;51.960;5.582;2022-10-17T03:41:10;9.20;;;6.37;;
12986;SDS011;58897;51.960;5.582;2022-10-17T03:43:37;8.63;;;6.47;;
12986;SDS011;58897;51.960;5.582;2022-10-17T03:46:07;8.73;;;6.60;;
12986;SDS011;58897;51.960;5.582;2022-10-17T03:48:33;8.60;;;6.23;;
12986;SDS011;58897;51.960;5.582;2022-10-17T03:51:00;8.47;;;6.50;;
12986;SDS011;58897;51.960;5.582;2022-10-17T03:53:29;8.10;;;6.83;;
12986;SDS011;58897;51.960;5.582;2022-10-17T03:55:56;7.17;;;5.40;;
12986;SDS011;58897;51.960;5.582;2022-10-17T03:58:23;7.83;;;6.37;;
12986;SDS011;58897;51.960;5.582;2022-10-17T04:00:49;8.20;;;6.50;;
12986;SDS011;58897;51.960;5.582;2022-10-17T04:03:15;8.13;;;6.10;;
12986;SDS011;58897;51.960;5.582;2022-10-17T04:05:42;7.83;;;5.73;;
12986;SDS011;58897;51.960;5.582;2022-10-17T04:08:09;7.20;;;5.83;;
12986;SDS011;58897;51.960;5.582;2022-10-17T04:10:35;7.93;;;5.83;;
12986;SDS011;58897;51.960;5.582;2022-10-17T04:13:01;9.03;;;6.50;;
12986;SDS011;58897;51.960;5.582;2022-10-17T04:15:28;13.07;;;6.00;;
12986;SDS011;58897;51.960;5.582;2022-10-17T04:17:54;8.20;;;6.17;;
12986;SDS011;58897;51.960;5.582;2022-10-17T04:20:21;11.27;;;6.30;;
12986;SDS011;58897;51.960;5.582;2022-10-17T04:22:47;8.37;;;5.57;;
12986;SDS011;58897;51.960;5.582;2022-10-17T04:25:13;7.87;;;5.50;;
12986;SDS011;58897;51.960;5.582;2022-10-17T04:27:40;8.27;;;5.97;;
12986;SDS011;58897;51.960;5.582;2022-10-17T04:30:06;6.27;;;5.50;;
12986;SDS011;58897;51.960;5.582;2022-10-17T04:32:35;10.87;;;5.43;;
12986;SDS011;58897;51.960;5.582;2022-10-17T04:35:03;8.03;;;6.33;;
12986;SDS011;58897;51.960;5.582;2022-10-17T04:37:30;8.20;;;6.17;;
12986;SDS011;58897;51.960;5.582;2022-10-17T04:39:56;9.90;;;5.63;;
12986;SDS011;58897;51.960;5.582;2022-10-17T04:42:23;8.73;;;6.37;;
12986;SDS011;58897;51.960;5.582;2022-10-17T04:44:49;9.70;;;6.57;;
12986;SDS011;58897;51.960;5.582;2022-10-17T04:47:15;8.40;;;5.87;;
12986;SDS011;58897;51.960;5.582;2022-10-17T04:49:42;7.57;;;6.27;;
12986;SDS011;58897;51.960;5.582;2022-10-17T04:52:08;13.07;;;6.13;;
12986;SDS011;58897;51.960;5.582;2022-10-17T04:54:35;11.17;;;6.17;;
12986;SDS011;58897;51.960;5.582;2022-10-17T04:57:01;11.47;;;6.80;;
12986;SDS011;58897;51.960;5.582;2022-10-17T04:59:27;10.97;;;6.43;;
12986;SDS011;58897;51.960;5.582;2022-10-17T05:01:54;8.33;;;6.13;;
12986;SDS011;58897;51.960;5.582;2022-10-17T05:04:20;8.57;;;6.40;;
12986;SDS011;58897;51.960;5.582;2022-10-17T05:06:50;9.97;;;5.97;;
12986;SDS011;58897;51.960;5.582;2022-10-17T05:09:16;7.03;;;5.73;;
12986;SDS011;58897;51.960;5.582;2022-10-17T05:11:43;8.73;;;6.23;;
12986;SDS011;58897;51.960;5.582;2022-10-17T05:14:09;8.33;;;6.10;;
12986;SDS011;58897;51.960;5.582;2022-10-17T05:16:35;8.30;;;6.50;;
12986;SDS011;58897;51.960;5.582;2022-10-17T05:19:02;8.90;;;6.53;;
12986;SDS011;58897;51.960;5.582;2022-10-17T05:21:29;9.93;;;6.53;;
12986;SDS011;58897;51.960;5.582;2022-10-17T05:23:55;8.13;;;6.03;;
12986;SDS011;58897;51.960;5.582;2022-10-17T05:26:22;9.50;;;6.63;;
12986;SDS011;58897;51.960;5.582;2022-10-17T05:28:49;8.33;;;6.20;;
12986;SDS011;58897;51.960;5.582;2022-10-17T05:31:17;8.93;;;6.00;;
12986;SDS011;58897;51.960;5.582;2022-10-17T05:33:44;10.53;;;6.30;;
12986;SDS011;58897;51.960;5.582;2022-10-17T05:36:11;8.57;;;5.93;;
12986;SDS011;58897;51.960;5.582;2022-10-17T05:38:37;9.70;;;6.57;;
12986;SDS011;58897;51.960;5.582;2022-10-17T05:41:04;7.63;;;6.17;;
12986;SDS011;58897;51.960;5.582;2022-10-17T05:43:31;8.77;;;6.67;;
12986;SDS011;58897;51.960;5.582;2022-10-17T05:46:01;9.27;;;6.10;;
12986;SDS011;58897;51.960;5.582;2022-10-17T05:48:29;8.30;;;6.20;;
12986;SDS011;58897;51.960;5.582;2022-10-17T05:50:56;12.00;;;6.20;;
12986;SDS011;58897;51.960;5.582;2022-10-17T05:53:24;8.80;;;5.70;;
12986;SDS011;58897;51.960;5.582;2022-10-17T05:55:55;7.43;;;5.97;;
12986;SDS011;58897;51.960;5.582;2022-10-17T05:58:25;8.33;;;5.90;;
12986;SDS011;58897;51.960;5.582;2022-10-17T06:01:12;8.37;;;6.17;;
12986;SDS011;58897;51.960;5.582;2022-10-17T06:03:39;12.17;;;6.27;;
12986;SDS011;58897;51.960;5.582;2022-10-17T06:06:07;7.37;;;6.00;;
12986;SDS011;58897;51.960;5.582;2022-10-17T06:08:35;8.17;;;5.90;;
12986;SDS011;58897;51.960;5.582;2022-10-17T06:11:02;9.13;;;6.07;;
12986;SDS011;58897;51.960;5.582;2022-10-17T06:13:34;8.17;;;6.23;;
12986;SDS011;58897;51.960;5.582;2022-10-17T06:16:00;8.13;;;6.03;;
12986;SDS011;58897;51.960;5.582;2022-10-17T06:18:27;8.13;;;6.07;;
12986;SDS011;58897;51.960;5.582;2022-10-17T06:20:53;9.13;;;6.33;;
12986;SDS011;58897;51.960;5.582;2022-10-17T06:23:20;8.90;;;6.30;;
12986;SDS011;58897;51.960;5.582;2022-10-17T06:25:46;7.60;;;6.10;;
12986;SDS011;58897;51.960;5.582;2022-10-17T06:28:12;8.63;;;5.90;;
12986;SDS011;58897;51.960;5.582;2022-10-17T06:30:39;8.60;;;5.50;;
12986;SDS011;58897;51.960;5.582;2022-10-17T06:33:06;8.73;;;6.30;;
12986;SDS011;58897;51.960;5.582;2022-10-17T06:35:32;10.73;;;5.90;;
12986;SDS011;58897;51.960;5.582;2022-10-17T06:37:59;8.53;;;6.13;;
12986;SDS011;58897;51.960;5.582;2022-10-17T06:40:25;7.97;;;6.33;;
12986;SDS011;58897;51.960;5.582;2022-10-17T06:42:52;9.17;;;6.53;;
12986;SDS011;58897;51.960;5.582;2022-10-17T06:45:18;6.70;;;6.03;;
12986;SDS011;58897;51.960;5.582;2022-10-17T06:47:44;6.60;;;5.57;;
12986;SDS011;58897;51.960;5.582;2022-10-17T06:50:11;8.23;;;5.70;;
12986;SDS011;58897;51.960;5.582;2022-10-17T06:52:37;7.17;;;5.60;;
12986;SDS011;58897;51.960;5.582;2022-10-17T06:55:04;6.23;;;5.63;;
12986;SDS011;58897;51.960;5.582;2022-10-17T06:57:31;7.97;;;6.03;;
12986;SDS011;58897;51.960;5.582;2022-10-17T06:59:57;8.93;;;6.80;;
12986;SDS011;58897;51.960;5.582;2022-10-17T07:02:24;10.73;;;5.70;;
12986;SDS011;58897;51.960;5.582;2022-10-17T07:04:51;7.73;;;5.90;;
12986;SDS011;58897;51.960;5.582;2022-10-17T07:07:18;7.93;;;6.17;;
12986;SDS011;58897;51.960;5.582;2022-10-17T07:09:44;6.83;;;5.77;;
12986;SDS011;58897;51.960;5.582;2022-10-17T07:12:10;7.63;;;5.70;;
12986;SDS011;58897;51.960;5.582;2022-10-17T07:14:37;7.03;;;5.80;;
12986;SDS011;58897;51.960;5.582;2022-10-17T07:17:04;6.53;;;5.30;;
12986;SDS011;58897;51.960;5.582;2022-10-17T07:19:30;9.30;;;6.27;;
12986;SDS011;58897;51.960;5.582;2022-10-17T07:21:57;7.13;;;5.87;;
12986;SDS011;58897;51.960;5.582;2022-10-17T07:24:23;7.43;;;5.67;;
12986;SDS011;58897;51.960;5.582;2022-10-17T07:26:50;7.63;;;5.83;;
12986;SDS011;58897;51.960;5.582;2022-10-17T07:29:16;8.17;;;5.40;;
12986;SDS011;58897;51.960;5.582;2022-10-17T07:31:43;6.70;;;5.70;;
12986;SDS011;58897;51.960;5.582;2022-10-17T07:34:10;7.40;;;5.30;;
12986;SDS011;58897;51.960;5.582;2022-10-17T07:36:37;8.90;;;5.73;;
12986;SDS011;58897;51.960;5.582;2022-10-17T07:39:03;6.67;;;5.60;;
12986;SDS011;58897;51.960;5.582;2022-10-17T07:41:30;9.37;;;5.67;;
12986;SDS011;58897;51.960;5.582;2022-10-17T07:43:56;10.20;;;6.30;;
12986;SDS011;58897;51.960;5.582;2022-10-17T07:46:23;8.87;;;5.63;;
12986;SDS011;58897;51.960;5.582;2022-10-17T07:48:49;7.50;;;5.70;;
12986;SDS011;58897;51.960;5.582;2022-10-17T07:51:16;9.70;;;5.40;;
12986;SDS011;58897;51.960;5.582;2022-10-17T07:53:45;8.20;;;5.50;;
12986;SDS011;58897;51.960;5.582;2022-10-17T07:56:14;8.73;;;6.37;;
12986;SDS011;58897;51.960;5.582;2022-10-17T07:58:40;9.10;;;5.87;;
12986;SDS011;58897;51.960;5.582;2022-10-17T08:01:07;8.07;;;6.00;;
12986;SDS011;58897;51.960;5.582;2022-10-17T08:03:42;9.07;;;6.03;;
12986;SDS011;58897;51.960;5.582;2022-10-17T08:06:09;10.00;;;5.90;;
12986;SDS011;58897;51.960;5.582;2022-10-17T08:08:36;7.30;;;5.67;;
12986;SDS011;58897;51.960;5.582;2022-10-17T08:11:04;9.10;;;6.13;;
12986;SDS011;58897;51.960;5.582;2022-10-17T08:13:32;7.43;;;6.30;;
12986;SDS011;58897;51.960;5.582;2022-10-17T08:16:03;11.37;;;5.90;;
12986;SDS011;58897;51.960;5.582;2022-10-17T08:18:32;7.30;;;5.87;;
12986;SDS011;58897;51.960;5.582;2022-10-17T08:21:00;7.47;;;5.97;;
12986;SDS011;58897;51.960;5.582;2022-10-17T08:23:33;7.33;;;5.10;;
12986;SDS011;58897;51.960;5.582;2022-10-17T08:26:02;9.83;;;5.77;;
12986;SDS011;58897;51.960;5.582;2022-10-17T08:28:29;7.60;;;5.47;;
12986;SDS011;58897;51.960;5.582;2022-10-17T08:31:03;8.33;;;5.60;;
12986;SDS011;58897;51.960;5.582;2022-10-17T08:33:33;9.40;;;5.50;;
12986;SDS011;58897;51.960;5.582;2022-10-17T08:36:00;7.80;;;5.73;;
12986;SDS011;58897;51.960;5.582;2022-10-17T08:38:27;7.77;;;5.90;;
12986;SDS011;58897;51.960;5.582;2022-10-17T08:41:01;7.60;;;5.67;;
12986;SDS011;58897;51.960;5.582;2022-10-17T08:43:37;6.43;;;4.80;;
12986;SDS011;58897;51.960;5.582;2022-10-17T08:46:12;7.17;;;5.03;;
12986;SDS011;58897;51.960;5.582;2022-10-17T08:48:41;8.97;;;5.63;;
12986;SDS011;58897;51.960;5.582;2022-10-17T08:56:10;6.87;;;4.90;;
12986;SDS011;58897;51.960;5.582;2022-10-17T08:58:50;8.77;;;6.20;;
12986;SDS011;58897;51.960;5.582;2022-10-17T09:04:05;8.67;;;5.50;;
12986;SDS011;58897;51.960;5.582;2022-10-17T09:06:51;7.20;;;5.60;;
12986;SDS011;58897;51.960;5.582;2022-10-17T09:15:19;15.03;;;6.30;;
12986;SDS011;58897;51.960;5.582;2022-10-17T09:18:06;8.27;;;6.20;;
12986;SDS011;58897;51.960;5.582;2022-10-17T09:20:43;10.67;;;5.97;;
12986;SDS011;58897;51.960;5.582;2022-10-17T09:23:14;8.00;;;6.27;;
12986;SDS011;58897;51.960;5.582;2022-10-17T09:25:49;7.83;;;5.97;;
12986;SDS011;58897;51.960;5.582;2022-10-17T09:28:29;8.87;;;5.93;;
12986;SDS011;58897;51.960;5.582;2022-10-17T09:31:00;6.67;;;5.60;;
12986;SDS011;58897;51.960;5.582;2022-10-17T09:33:41;6.33;;;5.50;;
12986;SDS011;58897;51.960;5.582;2022-10-17T09:36:29;8.07;;;5.33;;
12986;SDS011;58897;51.960;5.582;2022-10-17T09:38:59;7.90;;;5.80;;
12986;SDS011;58897;51.960;5.582;2022-10-17T09:41:38;8.80;;;5.77;;
12986;SDS011;58897;51.960;5.582;2022-10-17T09:44:19;7.03;;;6.07;;
12986;SDS011;58897;51.960;5.582;2022-10-17T09:47:00;6.60;;;5.63;;
12986;SDS011;58897;51.960;5.582;2022-10-17T09:49:30;8.07;;;6.00;;
12986;SDS011;58897;51.960;5.582;2022-10-17T09:51:59;8.50;;;5.93;;
12986;SDS011;58897;51.960;5.582;2022-10-17T09:54:41;7.87;;;5.77;;
12986;SDS011;58897;51.960;5.582;2022-10-17T09:57:09;6.00;;;5.23;;
12986;SDS011;58897;51.960;5.582;2022-10-17T09:59:38;10.30;;;5.50;;
12986;SDS011;58897;51.960;5.582;2022-10-17T10:05:01;9.10;;;5.80;;
12986;SDS011;58897;51.960;5.582;2022-10-17T10:07:34;8.07;;;5.60;;
12986;SDS011;58897;51.960;5.582;2022-10-17T10:10:03;8.63;;;5.37;;
12986;SDS011;58897;51.960;5.582;2022-10-17T10:12:36;8.37;;;5.40;;
12986;SDS011;58897;51.960;5.582;2022-10-17T10:17:56;7.90;;;6.10;;
12986;SDS011;58897;51.960;5.582;2022-10-17T10:20:23;9.73;;;5.27;;
12986;SDS011;58897;51.960;5.582;2022-10-17T10:23:03;7.87;;;5.80;;
12986;SDS011;58897;51.960;5.582;2022-10-17T10:25:30;6.87;;;5.37;;
12986;SDS011;58897;51.960;5.582;2022-10-17T10:27:56;8.83;;;5.47;;
12986;SDS011;58897;51.960;5.582;2022-10-17T10:30:27;7.60;;;5.13;;
12986;SDS011;58897;51.960;5.582;2022-10-17T10:32:59;7.07;;;5.73;;
12986;SDS011;58897;51.960;5.582;2022-10-17T10:35:33;10.63;;;5.77;;
12986;SDS011;58897;51.960;5.582;2022-10-17T10:38:02;7.30;;;5.10;;
12986;SDS011;58897;51.960;5.582;2022-10-17T10:40:49;6.80;;;5.00;;
12986;SDS011;58897;51.960;5.582;2022-10-17T10:45:47;7.60;;;5.60;;
12986;SDS011;58897;51.960;5.582;2022-10-17T10:48:21;9.17;;;5.57;;
12986;SDS011;58897;51.960;5.582;2022-10-17T10:56:27;6.10;;;5.33;;
12986;SDS011;58897;51.960;5.582;2022-10-17T11:04:22;9.13;;;6.30;;
12986;SDS011;58897;51.960;5.582;2022-10-17T11:07:14;6.50;;;5.07;;
12986;SDS011;58897;51.960;5.582;2022-10-17T11:12:33;6.83;;;5.77;;
12986;SDS011;58897;51.960;5.582;2022-10-17T11:23:27;7.87;;;5.73;;
12986;SDS011;58897;51.960;5.582;2022-10-17T11:26:01;7.70;;;5.60;;
12986;SDS011;58897;51.960;5.582;2022-10-17T11:28:33;8.13;;;5.77;;
12986;SDS011;58897;51.960;5.582;2022-10-17T11:31:01;10.50;;;6.30;;
12986;SDS011;58897;51.960;5.582;2022-10-17T11:36:11;7.30;;;5.87;;
12986;SDS011;58897;51.960;5.582;2022-10-17T11:38:44;10.60;;;6.03;;
12986;SDS011;58897;51.960;5.582;2022-10-17T11:41:14;9.87;;;6.53;;
12986;SDS011;58897;51.960;5.582;2022-10-17T11:43:50;10.20;;;6.83;;
12986;SDS011;58897;51.960;5.582;2022-10-17T11:46:23;8.20;;;5.80;;
12986;SDS011;58897;51.960;5.582;2022-10-17T11:52:24;7.07;;;5.70;;
12986;SDS011;58897;51.960;5.582;2022-10-17T11:55:12;9.27;;;5.73;;
12986;SDS011;58897;51.960;5.582;2022-10-17T11:57:50;8.97;;;6.23;;
12986;SDS011;58897;51.960;5.582;2022-10-17T12:00:39;6.60;;;5.57;;
12986;SDS011;58897;51.960;5.582;2022-10-17T12:09:16;9.40;;;6.73;;
12986;SDS011;58897;51.960;5.582;2022-10-17T12:11:51;8.80;;;6.33;;
12986;SDS011;58897;51.960;5.582;2022-10-17T12:14:33;8.90;;;6.13;;
12986;SDS011;58897;51.960;5.582;2022-10-17T12:17:02;9.57;;;6.30;;
12986;SDS011;58897;51.960;5.582;2022-10-17T12:19:32;11.37;;;7.07;;
12986;SDS011;58897;51.960;5.582;2022-10-17T12:22:19;7.63;;;6.13;;
12986;SDS011;58897;51.960;5.582;2022-10-17T12:27:41;8.57;;;6.10;;
12986;SDS011;58897;51.960;5.582;2022-10-17T12:33:00;10.87;;;7.10;;
12986;SDS011;58897;51.960;5.582;2022-10-17T12:35:33;8.57;;;6.70;;
12986;SDS011;58897;51.960;5.582;2022-10-17T12:45:53;8.50;;;6.53;;
12986;SDS011;58897;51.960;5.582;2022-10-17T12:54:12;9.00;;;6.47;;
12986;SDS011;58897;51.960;5.582;2022-10-17T12:56:42;13.43;;;7.13;;
12986;SDS011;58897;51.960;5.582;2022-10-17T13:01:52;9.37;;;7.27;;
12986;SDS011;58897;51.960;5.582;2022-10-17T13:04:21;9.27;;;7.27;;
12986;SDS011;58897;51.960;5.582;2022-10-17T13:06:53;8.60;;;7.23;;
12986;SDS011;58897;51.960;5.582;2022-10-17T13:09:24;10.03;;;7.00;;
12986;SDS011;58897;51.960;5.582;2022-10-17T13:11:53;10.63;;;7.20;;
12986;SDS011;58897;51.960;5.582;2022-10-17T13:14:22;11.30;;;7.10;;
12986;SDS011;58897;51.960;5.582;2022-10-17T13:16:52;9.73;;;7.47;;
12986;SDS011;58897;51.960;5.582;2022-10-17T13:19:21;10.83;;;8.47;;
12986;SDS011;58897;51.960;5.582;2022-10-17T13:24:31;11.53;;;7.93;;
12986;SDS011;58897;51.960;5.582;2022-10-17T13:27:00;13.80;;;7.80;;
12986;SDS011;58897;51.960;5.582;2022-10-17T13:29:27;12.57;;;7.47;;
12986;SDS011;58897;51.960;5.582;2022-10-17T13:31:59;10.77;;;7.77;;
12986;SDS011;58897;51.960;5.582;2022-10-17T13:34:30;10.63;;;7.50;;
12986;SDS011;58897;51.960;5.582;2022-10-17T13:36:58;16.73;;;8.03;;
12986;SDS011;58897;51.960;5.582;2022-10-17T13:39:28;15.20;;;9.30;;
12986;SDS011;58897;51.960;5.582;2022-10-17T13:42:23;10.63;;;7.83;;
12986;SDS011;58897;51.960;5.582;2022-10-17T13:44:52;13.43;;;9.30;;
12986;SDS011;58897;51.960;5.582;2022-10-17T13:47:23;11.20;;;8.87;;
12986;SDS011;58897;51.960;5.582;2022-10-17T13:49:52;12.40;;;8.57;;
12986;SDS011;58897;51.960;5.582;2022-10-17T13:52:22;13.37;;;9.27;;
12986;SDS011;58897;51.960;5.582;2022-10-17T13:54:53;10.67;;;8.23;;
12986;SDS011;58897;51.960;5.582;2022-10-17T13:57:25;11.77;;;8.70;;
12986;SDS011;58897;51.960;5.582;2022-10-17T13:59:57;10.67;;;8.17;;
12986;SDS011;58897;51.960;5.582;2022-10-17T14:02:36;11.67;;;8.10;;
12986;SDS011;58897;51.960;5.582;2022-10-17T14:07:50;12.77;;;7.93;;
12986;SDS011;58897;51.960;5.582;2022-10-17T14:10:39;14.23;;;8.13;;
12986;SDS011;58897;51.960;5.582;2022-10-17T14:13:13;12.03;;;8.53;;
12986;SDS011;58897;51.960;5.582;2022-10-17T14:15:46;10.00;;;7.70;;
12986;SDS011;58897;51.960;5.582;2022-10-17T14:18:13;7.87;;;7.07;;
12986;SDS011;58897;51.960;5.582;2022-10-17T14:20:45;11.30;;;7.27;;
12986;SDS011;58897;51.960;5.582;2022-10-17T14:26:04;10.00;;;7.40;;
12986;SDS011;58897;51.960;5.582;2022-10-17T14:28:34;13.33;;;7.70;;
12986;SDS011;58897;51.960;5.582;2022-10-17T14:31:08;10.60;;;7.70;;
12986;SDS011;58897;51.960;5.582;2022-10-17T14:33:58;11.07;;;7.60;;
12986;SDS011;58897;51.960;5.582;2022-10-17T14:36:38;8.77;;;7.40;;
12986;SDS011;58897;51.960;5.582;2022-10-17T14:39:17;9.83;;;7.67;;
12986;SDS011;58897;51.960;5.582;2022-10-17T14:41:45;9.90;;;7.43;;
12986;SDS011;58897;51.960;5.582;2022-10-17T14:44:20;10.03;;;7.60;;
12986;SDS011;58897;51.960;5.582;2022-10-17T14:47:00;10.10;;;7.37;;
12986;SDS011;58897;51.960;5.582;2022-10-17T14:49:50;9.37;;;7.23;;
12986;SDS011;58897;51.960;5.582;2022-10-17T14:54:47;10.07;;;7.73;;
12986;SDS011;58897;51.960;5.582;2022-10-17T14:59:55;9.83;;;7.00;;
12986;SDS011;58897;51.960;5.582;2022-10-17T15:02:26;13.27;;;8.20;;
12986;SDS011;58897;51.960;5.582;2022-10-17T15:04:55;11.67;;;8.40;;
12986;SDS011;58897;51.960;5.582;2022-10-17T15:07:21;10.77;;;7.20;;
12986;SDS011;58897;51.960;5.582;2022-10-17T15:09:49;9.57;;;8.07;;
12986;SDS011;58897;51.960;5.582;2022-10-17T15:12:18;10.57;;;7.33;;
12986;SDS011;58897;51.960;5.582;2022-10-17T15:14:46;9.10;;;7.80;;
12986;SDS011;58897;51.960;5.582;2022-10-17T15:17:17;10.07;;;7.77;;
12986;SDS011;58897;51.960;5.582;2022-10-17T15:19:46;10.80;;;8.37;;
12986;SDS011;58897;51.960;5.582;2022-10-17T15:22:13;12.63;;;9.03;;
12986;SDS011;58897;51.960;5.582;2022-10-17T15:24:41;13.23;;;9.60;;
12986;SDS011;58897;51.960;5.582;2022-10-17T15:27:23;11.60;;;8.00;;
12986;SDS011;58897;51.960;5.582;2022-10-17T15:29:51;10.73;;;8.83;;
12986;SDS011;58897;51.960;5.582;2022-10-17T15:32:18;14.07;;;9.23;;
12986;SDS011;58897;51.960;5.582;2022-10-17T15:34:44;11.43;;;9.13;;
12986;SDS011;58897;51.960;5.582;2022-10-17T15:37:16;11.30;;;9.17;;
12986;SDS011;58897;51.960;5.582;2022-10-17T15:39:53;12.97;;;9.10;;
12986;SDS011;58897;51.960;5.582;2022-10-17T15:42:21;13.50;;;9.23;;
12986;SDS011;58897;51.960;5.582;2022-10-17T15:44:48;12.97;;;9.10;;
12986;SDS011;58897;51.960;5.582;2022-10-17T15:47:25;13.80;;;9.87;;
12986;SDS011;58897;51.960;5.582;2022-10-17T15:49:54;12.37;;;9.23;;
12986;SDS011;58897;51.960;5.582;2022-10-17T15:52:21;12.07;;;9.20;;
12986;SDS011;58897;51.960;5.582;2022-10-17T15:54:48;12.17;;;9.90;;
12986;SDS011;58897;51.960;5.582;2022-10-17T15:57:17;13.20;;;10.00;;
12986;SDS011;58897;51.960;5.582;2022-10-17T15:59:46;13.13;;;10.27;;
12986;SDS011;58897;51.960;5.582;2022-10-17T16:02:14;12.67;;;9.60;;
12986;SDS011;58897;51.960;5.582;2022-10-17T16:04:43;11.70;;;9.90;;
12986;SDS011;58897;51.960;5.582;2022-10-17T16:07:10;12.10;;;9.53;;
12986;SDS011;58897;51.960;5.582;2022-10-17T16:09:36;12.43;;;9.57;;
12986;SDS011;58897;51.960;5.582;2022-10-17T16:12:03;12.67;;;10.17;;
12986;SDS011;58897;51.960;5.582;2022-10-17T16:14:31;12.70;;;9.97;;
12986;SDS011;58897;51.960;5.582;2022-10-17T16:16:58;12.83;;;10.00;;
12986;SDS011;58897;51.960;5.582;2022-10-17T16:19:25;17.00;;;10.97;;
12986;SDS011;58897;51.960;5.582;2022-10-17T16:21:55;11.77;;;9.97;;
12986;SDS011;58897;51.960;5.582;2022-10-17T16:24:27;12.33;;;9.83;;
12986;SDS011;58897;51.960;5.582;2022-10-17T16:26:53;13.83;;;10.67;;
12986;SDS011;58897;51.960;5.582;2022-10-17T16:29:20;17.03;;;10.17;;
12986;SDS011;58897;51.960;5.582;2022-10-17T16:31:46;12.20;;;9.33;;
12986;SDS011;58897;51.960;5.582;2022-10-17T16:34:13;13.40;;;10.43;;
12986;SDS011;58897;51.960;5.582;2022-10-17T16:36:40;16.33;;;11.00;;
12986;SDS011;58897;51.960;5.582;2022-10-17T16:39:07;15.20;;;11.60;;
12986;SDS011;58897;51.960;5.582;2022-10-17T16:41:35;14.57;;;10.93;;
12986;SDS011;58897;51.960;5.582;2022-10-17T16:44:04;14.43;;;11.00;;
12986;SDS011;58897;51.960;5.582;2022-10-17T16:46:32;15.50;;;11.70;;
12986;SDS011;58897;51.960;5.582;2022-10-17T16:49:01;16.53;;;11.40;;
12986;SDS011;58897;51.960;5.582;2022-10-17T16:54:11;16.80;;;10.93;;
12986;SDS011;58897;51.960;5.582;2022-10-17T16:56:37;12.17;;;9.93;;
12986;SDS011;58897;51.960;5.582;2022-10-17T16:59:04;15.37;;;11.10;;
12986;SDS011;58897;51.960;5.582;2022-10-17T17:01:30;17.00;;;11.83;;
12986;SDS011;58897;51.960;5.582;2022-10-17T17:03:57;16.73;;;12.30;;